createdAt,value
2017-09-09T01:20:39.241Z,99007
2017-09-09T02:03:17.942Z,98940
2017-09-09T02:06:12.427Z,98936
2017-09-09T02:09:02.268Z,98936
2017-09-09T02:12:05.660Z,98926
2017-09-09T02:14:34.837Z,98933
2017-09-09T02:35:21.069Z,98910
2017-09-09T03:55:02.257Z,98828
2017-09-09T04:09:41.196Z,98810
2017-09-09T04:12:10.891Z,98805
2017-09-09T04:15:01.983Z,98817
2017-09-09T04:17:45.182Z,98805
2017-09-09T05:17:24.995Z,98818
2017-09-09T05:20:00.363Z,98818
2017-09-09T05:22:28.953Z,98812
2017-09-09T05:25:00.694Z,98830
2017-09-09T05:27:31.272Z,98826
2017-09-09T05:30:00.481Z,98833
2017-09-09T05:35:08.906Z,98834
2017-09-09T05:37:39.123Z,98829
2017-09-09T05:40:09.329Z,98853
2017-09-09T05:42:44.659Z,98827
2017-09-09T05:45:20.767Z,98825
2017-09-09T05:50:53.607Z,98831
2017-09-09T06:02:24.845Z,98832
2017-09-09T06:04:58.244Z,98826
2017-09-09T06:07:45.825Z,98824
2017-09-09T06:10:18.513Z,98823
2017-09-09T06:12:52.109Z,98818
2017-09-09T06:18:24.545Z,98816
2017-09-09T06:21:06.165Z,98819
2017-09-09T06:23:47.557Z,98485
2017-09-09T06:29:23.872Z,98828
2017-09-09T06:43:23.595Z,98823
2017-09-09T07:05:05.629Z,98826
2017-09-09T08:21:50.372Z,98892
2017-09-09T08:24:20.056Z,98898
2017-09-09T08:27:12.059Z,98903
2017-09-09T08:29:42.883Z,98900
2017-09-09T08:32:14.132Z,98902
2017-09-09T08:50:10.675Z,98959
2017-09-09T08:58:40.804Z,98960
2017-09-09T09:04:35.585Z,99020
2017-09-09T09:13:24.907Z,98982
2017-09-09T09:16:00.004Z,98980
2017-09-09T09:18:49.164Z,98982
2017-09-09T09:21:19.749Z,98985
2017-09-09T09:27:27.853Z,98675
2017-09-09T09:29:57.105Z,98988
2017-09-09T09:32:25.441Z,98995
2017-09-09T09:34:58.443Z,98990
2017-09-09T09:37:37.746Z,98991
2017-09-09T09:40:10.369Z,99000
2017-09-09T09:42:39.968Z,98993
2017-09-09T09:45:21.040Z,98878
2017-09-09T09:48:19.207Z,99000
2017-09-09T09:51:02.749Z,99005
2017-09-09T10:00:00.034Z,99005
2017-09-09T10:02:35.072Z,99010
2017-09-09T10:05:10.143Z,99013
2017-09-09T10:25:58.630Z,99028
2017-09-09T10:50:55.572Z,99044
2017-09-09T10:53:30.069Z,99055
2017-09-09T10:56:25.017Z,99051
2017-09-09T11:02:09.034Z,99048
2017-09-09T11:04:58.397Z,99042
2017-09-09T11:07:36.849Z,99040
2017-09-09T11:10:05.763Z,99036
2017-09-09T11:12:34.756Z,99036
2017-09-09T11:15:10.330Z,99029
2017-09-09T11:17:41.519Z,99051
2017-09-09T11:20:13.537Z,99051
2017-09-09T11:22:42.556Z,99047
2017-09-09T11:25:25.661Z,99061
2017-09-09T11:27:55.626Z,99050
2017-09-09T11:30:25.710Z,98694
2017-09-09T11:32:54.154Z,99053
2017-09-09T11:35:25.645Z,99061
2017-09-09T11:37:55.177Z,99054
2017-09-09T11:40:25.885Z,99048
2017-09-09T11:42:55.149Z,99054
2017-09-09T11:45:23.628Z,99049
2017-09-09T11:47:52.126Z,99060
2017-09-09T11:50:33.586Z,99066
2017-09-09T11:53:22.879Z,99069
2017-09-09T11:55:54.348Z,99069
2017-09-09T11:58:26.639Z,99078
2017-09-09T12:00:58.557Z,99065
2017-09-09T12:03:27.767Z,99083
2017-09-09T12:05:56.248Z,99073
2017-09-09T12:08:25.971Z,99080
2017-09-09T12:11:00.721Z,99084
2017-09-09T12:13:35.836Z,99085
2017-09-09T12:16:09.737Z,99078
2017-09-09T12:18:42.974Z,99087
2017-09-09T12:21:20.455Z,99090
2017-09-09T12:23:50.483Z,99104
2017-09-09T12:26:40.228Z,99099
2017-09-09T12:35:04.656Z,98870
2017-09-09T12:37:33.026Z,99119
2017-09-09T12:42:40.384Z,99105
2017-09-09T12:48:01.976Z,99105
2017-09-09T12:50:31.009Z,99094
2017-09-09T12:52:59.127Z,99099
2017-09-09T12:55:28.245Z,99087
2017-09-09T12:57:57.172Z,99094
2017-09-09T13:00:26.215Z,99095
2017-09-09T13:02:54.332Z,99102
2017-09-09T13:05:25.632Z,98949
2017-09-09T13:07:53.851Z,99101
2017-09-09T13:10:22.304Z,99048
2017-09-09T13:12:56.697Z,99104
2017-09-09T13:15:24.884Z,99110
2017-09-09T13:18:00.723Z,99108
2017-09-09T13:20:28.919Z,99107
2017-09-09T13:22:57.017Z,99112
2017-09-09T13:25:26.543Z,99115
2017-09-09T13:27:54.963Z,99115
2017-09-09T13:30:23.046Z,99109
2017-09-09T13:32:51.652Z,99107
2017-09-09T13:35:21.721Z,99111
2017-09-09T13:37:50.004Z,99114
2017-09-09T13:40:18.099Z,99120
2017-09-09T13:42:49.984Z,99117
2017-09-09T13:45:18.060Z,99117
2017-09-09T13:47:46.260Z,99120
2017-09-09T13:50:14.387Z,99116
2017-09-09T13:52:46.597Z,99119
2017-09-09T13:55:14.754Z,99124
2017-09-09T13:57:45.508Z,99120
2017-09-09T14:00:15.036Z,99124
2017-09-09T14:02:43.866Z,99123
2017-09-09T14:05:15.433Z,99117
2017-09-09T14:07:43.705Z,99116
2017-09-09T14:10:12.151Z,99127
2017-09-09T14:12:40.971Z,99120
2017-09-09T14:15:09.546Z,99118
2017-09-09T14:17:38.228Z,99124
2017-09-09T14:20:07.369Z,99132
2017-09-09T14:22:35.754Z,99130
2017-09-09T14:25:04.083Z,99121
2017-09-09T14:27:32.475Z,99137
2017-09-09T14:30:01.798Z,99124
2017-09-09T14:32:30.821Z,99126
2017-09-09T14:34:59.032Z,99134
2017-09-09T14:37:29.442Z,99133
2017-09-09T14:39:58.038Z,99141
2017-09-09T14:42:30.641Z,99133
2017-09-09T14:44:59.845Z,99140
2017-09-09T14:47:29.557Z,99092
2017-09-09T14:49:57.720Z,99138
2017-09-09T14:52:29.032Z,99141
2017-09-09T14:54:57.651Z,99144
2017-09-09T14:57:29.003Z,99135
2017-09-09T14:59:57.184Z,99145
2017-09-09T15:02:27.411Z,99146
2017-09-09T15:04:56.238Z,99145
2017-09-09T15:07:24.683Z,99144
2017-09-09T15:09:55.253Z,99148
2017-09-09T15:12:24.161Z,99153
2017-09-09T15:14:52.605Z,99152
2017-09-09T15:17:21.092Z,99160
2017-09-09T15:19:49.345Z,99161
2017-09-09T15:22:19.102Z,99160
2017-09-09T15:24:52.285Z,99159
2017-09-09T15:27:20.453Z,99152
2017-09-09T15:29:48.909Z,99161
2017-09-09T15:32:23.016Z,99157
2017-09-09T15:34:51.491Z,99155
2017-09-09T15:37:20.449Z,99160
2017-09-09T15:39:49.681Z,99168
2017-09-09T15:42:25.674Z,99168
2017-09-09T15:45:19.615Z,99185
2017-09-09T15:47:50.497Z,99176
2017-09-09T15:53:25.002Z,99176
2017-09-09T15:55:53.841Z,99179
2017-09-09T15:58:30.059Z,99071
2017-09-09T16:00:59.069Z,99178
2017-09-09T16:03:28.344Z,99191
2017-09-09T16:05:57.330Z,99200
2017-09-09T16:08:25.520Z,99204
2017-09-09T16:10:54.414Z,99201
2017-09-09T16:13:22.561Z,99214
2017-09-09T16:15:51.647Z,99226
2017-09-09T16:18:19.936Z,99210
2017-09-09T16:20:48.025Z,99215
2017-09-09T16:23:16.212Z,99228
2017-09-09T16:25:45.211Z,99226
2017-09-09T16:28:15.380Z,99224
2017-09-09T16:30:43.819Z,99219
2017-09-09T16:33:12.264Z,99225
2017-09-09T16:35:41.751Z,99229
2017-09-09T16:38:10.238Z,99234
2017-09-09T16:40:41.712Z,99231
2017-09-09T16:43:10.749Z,99230
2017-09-09T16:45:39.523Z,99235
2017-09-09T16:48:11.769Z,99228
2017-09-09T16:50:44.819Z,99240
2017-09-09T16:53:18.413Z,99235
2017-09-09T16:55:46.560Z,99247
2017-09-09T16:58:15.488Z,99245
2017-09-09T17:00:43.858Z,99236
2017-09-09T17:03:13.303Z,99252
2017-09-09T17:05:44.660Z,99256
2017-09-09T17:08:13.172Z,99251
2017-09-09T17:10:41.627Z,99249
2017-09-09T17:13:09.805Z,99242
2017-09-09T17:15:38.045Z,99252
2017-09-09T17:18:08.330Z,99251
2017-09-09T17:20:37.389Z,99254
2017-09-09T17:23:06.384Z,99260
2017-09-09T17:25:34.866Z,99255
2017-09-09T17:28:03.865Z,99258
2017-09-09T17:30:32.413Z,99268
2017-09-09T17:33:01.430Z,99274
2017-09-09T17:35:33.852Z,99279
2017-09-09T17:38:02.262Z,99276
2017-09-09T17:40:31.254Z,99274
2017-09-09T17:43:00.696Z,99278
2017-09-09T17:45:28.813Z,99275
2017-09-09T17:47:58.209Z,99271
2017-09-09T17:50:29.810Z,99279
2017-09-09T17:52:59.561Z,99292
2017-09-09T17:55:27.648Z,99297
2017-09-09T17:57:57.712Z,99291
2017-09-09T18:00:26.955Z,99299
2017-09-09T18:02:55.412Z,99294
2017-09-09T18:05:47.164Z,99292
2017-09-09T18:08:15.267Z,99298
2017-09-09T18:10:44.488Z,99297
2017-09-09T18:13:13.550Z,99306
2017-09-09T18:15:45.084Z,99316
2017-09-09T18:18:17.151Z,99319
2017-09-09T18:20:45.640Z,99321
2017-09-09T18:23:14.771Z,99318
2017-09-09T18:25:51.475Z,99316
2017-09-09T18:28:19.579Z,99318
2017-09-09T18:30:55.173Z,99320
2017-09-09T18:33:25.348Z,99317
2017-09-09T18:35:54.601Z,99316
2017-09-09T18:38:49.006Z,99325
2017-09-09T18:44:05.422Z,99333
2017-09-09T18:46:47.973Z,99345
2017-09-09T18:49:17.722Z,99348
2017-09-09T18:51:46.511Z,99339
2017-09-09T18:54:35.366Z,99343
2017-09-09T18:57:04.780Z,99348
2017-09-09T18:59:35.215Z,99355
2017-09-09T19:02:07.106Z,99356
2017-09-09T19:04:49.065Z,99357
2017-09-09T19:07:18.394Z,99361
2017-09-09T19:09:58.172Z,99366
2017-09-09T19:12:26.358Z,99362
2017-09-09T19:15:15.480Z,99368
2017-09-09T19:17:47.349Z,99362
2017-09-09T19:20:17.466Z,99375
2017-09-09T19:26:00.239Z,99377
2017-09-09T19:28:34.960Z,99385
2017-09-09T19:31:03.993Z,99384
2017-09-09T19:33:32.288Z,99388
2017-09-09T19:39:02.744Z,99390
2017-09-09T19:41:32.902Z,99394
2017-09-09T19:47:04.569Z,99404
2017-09-09T19:49:38.917Z,99399
2017-09-09T19:52:10.076Z,99404
2017-09-09T19:54:40.205Z,99415
2017-09-09T19:57:22.336Z,99416
2017-09-09T19:59:56.677Z,99420
2017-09-09T20:05:28.923Z,99410
2017-09-09T20:08:08.254Z,99410
2017-09-09T20:10:49.976Z,99411
2017-09-09T20:13:40.247Z,99408
2017-09-09T20:16:14.864Z,99414
2017-09-09T20:18:43.457Z,99408
2017-09-09T20:21:16.045Z,99410
2017-09-09T20:23:44.634Z,99409
2017-09-09T20:26:23.556Z,99407
2017-09-09T20:46:51.176Z,99434
2017-09-09T20:49:38.211Z,99428
2017-09-09T20:52:07.129Z,99440
2017-09-09T20:54:36.101Z,99446
2017-09-09T20:57:04.473Z,99440
2017-09-09T20:59:32.613Z,99446
2017-09-09T21:02:01.302Z,99450
2017-09-09T21:04:29.737Z,99450
2017-09-09T21:06:59.120Z,99451
2017-09-09T21:09:28.234Z,99457
2017-09-09T21:11:56.599Z,99458
2017-09-09T21:14:25.879Z,99454
2017-09-09T21:16:54.017Z,99466
2017-09-09T21:19:22.145Z,99464
2017-09-09T21:21:50.404Z,99475
2017-09-09T21:24:18.811Z,99478
2017-09-09T21:26:46.942Z,99479
2017-09-09T21:29:15.349Z,99487
2017-09-09T21:31:43.457Z,99470
2017-09-09T21:34:11.560Z,99473
2017-09-09T21:36:39.655Z,99477
2017-09-09T21:39:07.805Z,99483
2017-09-09T21:41:36.196Z,99478
2017-09-09T21:44:04.358Z,99485
2017-09-09T21:46:32.474Z,99487
2017-09-09T21:49:00.588Z,99482
2017-09-09T21:51:30.766Z,99484
2017-09-09T21:53:58.852Z,99487
2017-09-09T21:56:27.322Z,99479
2017-09-09T21:58:57.556Z,99493
2017-09-09T22:01:26.477Z,99490
2017-09-09T22:03:54.903Z,99493
2017-09-09T22:06:23.413Z,99497
2017-09-09T22:08:51.743Z,99492
2017-09-09T22:11:22.012Z,99498
2017-09-09T22:13:50.189Z,99492
2017-09-09T22:16:18.412Z,99498
2017-09-09T22:18:46.520Z,99492
2017-09-09T22:21:14.634Z,99501
2017-09-09T22:23:42.740Z,99505
2017-09-09T22:26:12.229Z,99503
2017-09-09T22:28:43.875Z,99503
2017-09-09T22:31:12.971Z,99498
2017-09-09T22:33:41.100Z,99511
2017-09-09T22:36:09.222Z,99512
2017-09-09T22:38:37.355Z,99509
2017-09-09T22:41:05.544Z,99511
2017-09-09T22:43:33.620Z,99513
2017-09-09T22:46:01.715Z,99511
2017-09-09T22:48:29.827Z,99512
2017-09-09T22:50:59.972Z,99514
2017-09-09T22:53:28.142Z,99520
2017-09-09T22:55:58.301Z,99519
2017-09-09T22:58:30.175Z,99516
2017-09-09T23:00:59.224Z,99515
2017-09-09T23:03:27.488Z,99523
2017-09-09T23:05:55.640Z,99510
2017-09-09T23:08:24.107Z,99505
2017-09-09T23:10:52.508Z,99511
2017-09-09T23:13:21.419Z,99505
2017-09-09T23:15:51.705Z,99508
2017-09-09T23:18:19.812Z,99513
2017-09-09T23:20:48.084Z,99513
2017-09-09T23:23:16.448Z,99510
2017-09-09T23:25:44.656Z,99500
2017-09-09T23:28:12.712Z,99511
2017-09-09T23:30:41.859Z,99508
2017-09-09T23:33:11.056Z,99511
2017-09-09T23:35:39.152Z,99517
2017-09-09T23:38:08.049Z,99508
2017-09-09T23:40:36.123Z,99509
2017-09-09T23:43:04.300Z,99514
2017-09-09T23:45:32.404Z,99522
2017-09-09T23:48:00.487Z,99504
2017-09-09T23:50:28.591Z,99506
2017-09-09T23:52:56.673Z,99507
2017-09-09T23:55:25.555Z,99515
2017-09-09T23:57:54.563Z,99515
